createdAt,value
2023-05-22T04:06:50.183Z,99.90
2023-05-22T04:10:22.872Z,99.90
2023-05-22T04:13:51.124Z,99.90
2023-05-22T04:17:19.773Z,99.90
2023-05-22T04:20:47.328Z,99.90
2023-05-22T04:24:15.995Z,99.90
2023-05-22T04:27:43.329Z,99.90
2023-05-22T04:31:10.865Z,99.90
2023-05-22T04:34:38.328Z,99.90
2023-05-22T04:38:06.560Z,99.90
2023-05-22T04:41:35.076Z,99.90
2023-05-22T04:45:02.289Z,99.90
2023-05-22T04:48:29.472Z,99.90
2023-05-22T04:51:57.677Z,99.90
2023-05-22T04:55:24.847Z,99.90
2023-05-22T04:58:54.181Z,99.90
2023-05-22T05:02:21.642Z,99.90
2023-05-22T05:05:49.131Z,99.90
2023-05-22T05:09:16.329Z,99.90
2023-05-22T05:12:43.235Z,99.90
2023-05-22T05:16:12.539Z,99.90
2023-05-22T05:19:39.956Z,99.90
2023-05-22T05:23:07.202Z,99.90
2023-05-22T05:26:34.261Z,99.90
2023-05-22T05:30:02.080Z,99.90
2023-05-22T05:33:32.115Z,99.90
2023-05-22T05:36:59.674Z,99.90
2023-05-22T05:40:26.696Z,99.90
2023-05-22T05:43:54.253Z,99.90
2023-05-22T05:47:24.319Z,99.90
2023-05-22T05:50:54.510Z,99.90
2023-05-22T05:54:22.141Z,99.90
2023-05-22T05:57:49.154Z,99.90
2023-05-22T06:01:16.748Z,99.90
2023-05-22T06:04:43.916Z,99.90
2023-05-22T06:08:13.527Z,99.90
2023-05-22T06:11:40.926Z,99.90
2023-05-22T06:15:08.885Z,99.90
2023-05-22T06:18:37.252Z,99.90
2023-05-22T06:22:04.767Z,99.90
2023-05-22T06:25:33.941Z,99.90
2023-05-22T06:29:00.984Z,99.90
2023-05-22T06:32:28.347Z,99.90
2023-05-22T06:35:55.972Z,99.90
2023-05-22T06:39:23.427Z,99.90
2023-05-22T06:42:52.044Z,99.90
2023-05-22T06:46:19.445Z,99.90
2023-05-22T06:49:46.462Z,99.90
2023-05-22T06:53:13.816Z,99.90
2023-05-22T06:56:41.408Z,99.90
2023-05-22T07:00:13.085Z,99.90
2023-05-22T07:03:40.384Z,99.90
2023-05-22T07:07:07.603Z,99.90
2023-05-22T07:10:34.842Z,99.90
2023-05-22T07:14:05.937Z,99.90
2023-05-22T07:17:34.924Z,99.90
2023-05-22T07:21:02.886Z,99.90
2023-05-22T07:24:36.200Z,99.90
2023-05-22T07:28:08.721Z,99.90
2023-05-22T07:31:39.378Z,99.90
2023-05-22T07:35:07.702Z,99.90
2023-05-22T07:38:35.031Z,99.90
2023-05-22T07:42:03.139Z,99.90
2023-05-22T07:45:30.427Z,99.90
2023-05-22T07:49:01.955Z,99.90
2023-05-22T07:52:30.438Z,99.90
2023-05-22T07:55:57.362Z,99.90
2023-05-22T07:59:25.658Z,99.90
2023-05-22T08:02:56.030Z,99.90
2023-05-22T08:06:25.044Z,99.90
2023-05-22T08:09:52.346Z,99.90
2023-05-22T08:13:19.910Z,99.90
2023-05-22T08:16:47.446Z,99.90
2023-05-22T08:20:15.402Z,99.90
2023-05-22T08:23:44.076Z,99.90
2023-05-22T08:27:11.301Z,99.90
2023-05-22T08:30:39.065Z,99.90
2023-05-22T08:34:07.298Z,99.90
2023-05-22T08:37:34.551Z,99.90
2023-05-22T08:41:03.329Z,99.90
2023-05-22T08:44:30.729Z,99.90
2023-05-22T08:47:59.694Z,99.90
2023-05-22T08:51:29.466Z,99.90
2023-05-22T08:54:58.448Z,99.90
2023-05-22T08:58:27.682Z,99.90
2023-05-22T09:01:55.237Z,99.90
2023-05-22T09:05:26.935Z,99.90
2023-05-22T09:08:54.904Z,99.90
2023-05-22T09:12:22.815Z,99.90
2023-05-22T09:15:51.544Z,99.90
2023-05-22T09:19:19.995Z,99.90
2023-05-22T09:22:48.530Z,99.90
2023-05-22T09:26:18.740Z,99.90
2023-05-22T09:29:52.529Z,99.90
2023-05-22T09:33:20.028Z,99.90
2023-05-22T09:36:49.436Z,99.90
2023-05-22T09:40:16.925Z,99.90
2023-05-22T09:43:51.115Z,99.90
2023-05-22T09:47:19.701Z,99.90
2023-05-22T09:50:48.861Z,99.90
2023-05-22T09:54:17.947Z,99.90
2023-05-22T09:57:48.337Z,99.90
2023-05-22T10:01:17.562Z,99.90
2023-05-22T10:04:50.169Z,99.90
2023-05-22T10:08:22.464Z,99.90
2023-05-22T10:11:54.473Z,99.90
2023-05-22T10:15:23.005Z,99.90
2023-05-22T10:18:52.582Z,99.90
2023-05-22T10:22:23.087Z,99.90
2023-05-22T10:25:51.920Z,99.90
2023-05-22T10:29:29.518Z,99.90
2023-05-22T10:33:04.639Z,99.90
2023-05-22T10:36:48.974Z,99.90
2023-05-22T10:40:30.567Z,99.90
2023-05-22T10:43:59.899Z,99.90
2023-05-22T10:47:27.825Z,99.90
2023-05-22T10:51:07.774Z,99.90
2023-05-22T10:54:40.585Z,99.90
2023-05-22T10:58:14.158Z,99.70
2023-05-22T11:01:41.904Z,99.90
2023-05-22T11:05:31.168Z,99.40
2023-05-22T11:09:30.273Z,99.90
2023-05-22T11:13:16.076Z,99.50
2023-05-22T11:16:47.424Z,99.30
2023-05-22T11:20:20.164Z,99.10
2023-05-22T11:23:54.101Z,98.90
2023-05-22T11:27:22.234Z,99.10
2023-05-22T11:30:49.966Z,98.70
2023-05-22T11:34:17.625Z,98.20
2023-05-22T11:37:45.123Z,98.50
2023-05-22T11:41:17.270Z,97.70
2023-05-22T11:44:44.398Z,97.70
2023-05-22T11:48:16.371Z,97.30
2023-05-22T11:51:44.091Z,97.20
2023-05-22T11:55:12.076Z,96.80
2023-05-22T11:58:41.084Z,97.30
2023-05-22T12:02:08.886Z,97.60
2023-05-22T12:05:38.364Z,96.80
2023-05-22T12:09:07.395Z,95.90
2023-05-22T12:12:36.593Z,95.70
2023-05-22T12:16:19.877Z,95.30
2023-05-22T12:19:48.835Z,95.30
2023-05-22T12:23:22.519Z,94.90
2023-05-22T12:26:59.832Z,95.00
2023-05-22T12:30:28.877Z,93.70
2023-05-22T12:33:57.557Z,94.80
2023-05-22T12:37:35.744Z,94.60
2023-05-22T12:41:05.951Z,94.20
2023-05-22T12:44:33.338Z,93.40
2023-05-22T12:48:02.097Z,93.30
2023-05-22T12:51:31.602Z,94.90
2023-05-22T12:54:59.530Z,94.80
2023-05-22T12:58:26.537Z,94.60
2023-05-22T13:01:58.212Z,94.00
2023-05-22T13:05:27.387Z,94.50
2023-05-22T13:08:54.816Z,94.60
2023-05-22T13:12:22.255Z,94.60
2023-05-22T13:15:49.614Z,93.70
2023-05-22T13:19:19.209Z,93.50
2023-05-22T13:22:47.958Z,92.30
2023-05-22T13:26:16.655Z,92.80
2023-05-22T13:29:44.471Z,92.70
2023-05-22T13:33:13.879Z,92.20
2023-05-22T13:36:41.252Z,92.60
2023-05-22T13:40:10.930Z,92.20
2023-05-22T13:43:38.938Z,93.00
2023-05-22T13:47:06.432Z,93.10
2023-05-22T13:50:33.789Z,92.50
2023-05-22T13:54:00.963Z,92.00
2023-05-22T13:57:29.684Z,92.30
2023-05-22T14:01:00.132Z,92.10
2023-05-22T14:04:28.284Z,91.50
2023-05-22T14:07:56.887Z,91.40
2023-05-22T14:11:24.628Z,91.40
2023-05-22T14:14:53.995Z,91.00
2023-05-22T14:18:21.382Z,91.10
2023-05-22T14:21:49.965Z,90.80
2023-05-22T14:25:17.556Z,91.50
2023-05-22T14:28:44.906Z,91.30
2023-05-22T14:32:14.170Z,91.60
2023-05-22T14:35:41.619Z,91.60
2023-05-22T14:39:09.036Z,91.10
2023-05-22T14:42:36.696Z,92.50
2023-05-22T14:46:04.760Z,92.40
2023-05-22T14:49:34.068Z,92.10
2023-05-22T14:53:02.986Z,92.40
2023-05-22T14:56:30.280Z,92.40
2023-05-22T14:59:58.303Z,92.30
2023-05-22T15:03:25.749Z,92.70
2023-05-22T15:06:54.661Z,93.00
2023-05-22T15:10:22.169Z,92.50
2023-05-22T15:13:49.340Z,92.20
2023-05-22T15:17:16.810Z,91.60
2023-05-22T15:20:43.907Z,92.10
2023-05-22T15:24:13.528Z,92.30
2023-05-22T15:27:41.404Z,91.90
2023-05-22T15:31:09.137Z,92.70
2023-05-22T15:34:36.277Z,91.70
2023-05-22T15:38:05.063Z,92.10
2023-05-22T15:41:33.945Z,92.40
2023-05-22T15:45:02.184Z,92.50
2023-05-22T15:48:32.419Z,92.70
2023-05-22T15:51:59.848Z,92.20
2023-05-22T15:55:27.242Z,92.50
2023-05-22T15:58:56.175Z,91.10
2023-05-22T16:02:23.447Z,91.70
2023-05-22T16:05:50.739Z,92.70
2023-05-22T16:09:19.551Z,92.40
2023-05-22T16:12:46.969Z,92.10
2023-05-22T16:16:17.788Z,91.80
2023-05-22T16:19:44.850Z,92.20
2023-05-22T16:23:12.166Z,91.50
2023-05-22T16:26:39.402Z,91.40
2023-05-22T16:30:08.800Z,91.30
2023-05-22T16:33:37.689Z,91.40
2023-05-22T16:37:05.638Z,91.40
2023-05-22T16:40:33.065Z,91.60
2023-05-22T16:44:00.830Z,91.70
2023-05-22T16:47:29.020Z,92.10
2023-05-22T16:50:57.900Z,92.90
2023-05-22T16:54:25.974Z,93.40
2023-05-22T16:57:53.322Z,93.70
2023-05-22T17:01:22.231Z,94.70
2023-05-22T17:04:49.515Z,96.10
2023-05-22T17:08:18.303Z,96.50
2023-05-22T17:11:45.372Z,96.50
2023-05-22T17:15:13.183Z,96.50
2023-05-22T17:18:40.931Z,97.50
2023-05-22T17:22:07.935Z,97.90
2023-05-22T17:25:37.042Z,99.00
2023-05-22T17:29:04.481Z,99.90
2023-05-22T17:32:32.377Z,99.90
2023-05-22T17:35:59.982Z,99.90
2023-05-22T17:39:28.745Z,99.90
2023-05-22T17:42:58.865Z,99.90
2023-05-22T17:46:26.788Z,99.90
2023-05-22T17:49:57.158Z,99.90
2023-05-22T17:53:24.426Z,99.90
2023-05-22T17:56:51.984Z,99.90
2023-05-22T18:00:20.809Z,99.90
2023-05-22T18:03:48.302Z,99.90
2023-05-22T18:07:16.273Z,99.90
2023-05-22T18:10:43.656Z,99.90
2023-05-22T18:14:11.265Z,99.90
2023-05-22T18:17:41.600Z,99.90
2023-05-22T18:21:10.985Z,99.90
2023-05-22T18:24:38.311Z,99.90
2023-05-22T18:28:06.907Z,99.90
2023-05-22T18:31:34.273Z,99.90
2023-05-22T18:35:04.785Z,99.90
2023-05-22T18:38:32.311Z,99.90
2023-05-22T18:42:00.318Z,99.90
2023-05-22T18:45:27.591Z,99.90
2023-05-22T18:48:56.550Z,99.90
2023-05-22T18:52:25.738Z,99.90
2023-05-22T18:55:54.130Z,99.90
2023-05-22T18:59:21.590Z,99.90
2023-05-22T19:02:49.106Z,99.90
2023-05-22T19:06:23.194Z,99.90
2023-05-22T19:10:08.485Z,99.90
2023-05-22T19:13:35.786Z,99.90
2023-05-22T19:17:03.972Z,99.90
2023-05-22T19:20:31.355Z,99.90
2023-05-22T19:24:00.449Z,99.90
2023-05-22T19:27:28.071Z,99.90
2023-05-22T19:30:58.290Z,99.90
2023-05-22T19:34:25.599Z,99.90
2023-05-22T19:37:52.777Z,99.90
2023-05-22T19:41:23.357Z,99.90
2023-05-22T19:44:53.330Z,99.90
2023-05-22T19:48:21.533Z,99.90
2023-05-22T19:51:49.247Z,99.90
2023-05-22T19:55:16.743Z,99.90
2023-05-22T19:58:45.399Z,99.90
2023-05-22T20:02:13.227Z,99.90
2023-05-22T20:05:41.960Z,99.90
2023-05-22T20:09:10.427Z,99.90
2023-05-22T20:12:37.569Z,99.90
2023-05-22T20:16:12.078Z,99.90
2023-05-22T20:19:39.591Z,99.90
2023-05-22T20:23:07.079Z,99.90
2023-05-22T20:26:34.231Z,99.90
2023-05-22T20:30:01.274Z,99.90
2023-05-22T20:33:30.342Z,99.90
2023-05-22T20:36:58.861Z,99.90
2023-05-22T20:40:27.030Z,99.90
2023-05-22T20:43:54.720Z,99.90
2023-05-22T20:47:21.951Z,99.90
2023-05-22T20:50:50.983Z,99.90
2023-05-22T20:54:18.496Z,99.90
2023-05-22T20:57:46.015Z,99.90
2023-05-22T21:01:14.987Z,99.90
2023-05-22T21:04:42.317Z,99.90
2023-05-22T21:08:11.353Z,99.90
2023-05-22T21:11:38.806Z,99.90
2023-05-22T21:15:06.443Z,99.90
2023-05-22T21:18:33.931Z,99.90
2023-05-22T21:22:01.606Z,99.90
2023-05-22T21:25:31.400Z,99.90
2023-05-22T21:28:59.887Z,99.90
2023-05-22T21:32:27.136Z,99.90
2023-05-22T21:35:54.343Z,99.90
2023-05-22T21:39:21.805Z,99.90
2023-05-22T21:42:51.131Z,99.90
2023-05-22T21:46:18.375Z,99.90
